sensor_id;sensor_type;location;lat;lon;timestamp;temperature;humidity
19252;DHT22;9760;50.944;5.304;2022-08-04T00:00:26;25.40;99.90
19252;DHT22;9760;50.944;5.304;2022-08-04T00:03:12;25.30;99.90
19252;DHT22;9760;50.944;5.304;2022-08-04T00:08:45;25.30;99.90
19252;DHT22;9760;50.944;5.304;2022-08-04T00:11:25;25.30;99.90
19252;DHT22;9760;50.944;5.304;2022-08-04T00:14:04;25.30;99.90
19252;DHT22;9760;50.944;5.304;2022-08-04T00:16:35;25.30;99.90
19252;DHT22;9760;50.944;5.304;2022-08-04T00:19:17;25.40;99.90
19252;DHT22;9760;50.944;5.304;2022-08-04T00:21:51;25.40;99.90
19252;DHT22;9760;50.944;5.304;2022-08-04T00:24:20;25.40;99.90
19252;DHT22;9760;50.944;5.304;2022-08-04T00:26:46;25.50;99.90
19252;DHT22;9760;50.944;5.304;2022-08-04T00:29:12;25.50;99.90
19252;DHT22;9760;50.944;5.304;2022-08-04T00:31:40;25.50;99.90
19252;DHT22;9760;50.944;5.304;2022-08-04T00:34:09;25.60;99.90
19252;DHT22;9760;50.944;5.304;2022-08-04T00:36:36;25.50;99.90
19252;DHT22;9760;50.944;5.304;2022-08-04T00:39:02;25.50;99.90
19252;DHT22;9760;50.944;5.304;2022-08-04T00:44:28;25.50;99.90
19252;DHT22;9760;50.944;5.304;2022-08-04T00:47:10;25.50;99.90
19252;DHT22;9760;50.944;5.304;2022-08-04T00:49:50;25.50;99.90
19252;DHT22;9760;50.944;5.304;2022-08-04T00:52:25;25.50;99.90
19252;DHT22;9760;50.944;5.304;2022-08-04T01:03:26;25.40;99.90
19252;DHT22;9760;50.944;5.304;2022-08-04T01:16:50;25.40;99.90
19252;DHT22;9760;50.944;5.304;2022-08-04T01:30:13;25.30;99.90
19252;DHT22;9760;50.944;5.304;2022-08-04T01:32:51;25.20;99.90
19252;DHT22;9760;50.944;5.304;2022-08-04T01:35:23;25.20;99.90
19252;DHT22;9760;50.944;5.304;2022-08-04T01:40:21;25.10;99.90
19252;DHT22;9760;50.944;5.304;2022-08-04T01:42:52;25.00;99.90
19252;DHT22;9760;50.944;5.304;2022-08-04T01:45:18;25.00;99.90
19252;DHT22;9760;50.944;5.304;2022-08-04T01:47:54;24.90;99.90
19252;DHT22;9760;50.944;5.304;2022-08-04T01:50:20;24.90;99.90
19252;DHT22;9760;50.944;5.304;2022-08-04T01:52:47;24.90;99.90
19252;DHT22;9760;50.944;5.304;2022-08-04T01:55:14;24.90;99.90
19252;DHT22;9760;50.944;5.304;2022-08-04T01:57:43;24.90;99.90
19252;DHT22;9760;50.944;5.304;2022-08-04T02:00:15;24.80;99.90
19252;DHT22;9760;50.944;5.304;2022-08-04T02:02:41;24.80;99.90
19252;DHT22;9760;50.944;5.304;2022-08-04T02:05:11;24.80;99.90
19252;DHT22;9760;50.944;5.304;2022-08-04T02:20:39;24.60;99.90
19252;DHT22;9760;50.944;5.304;2022-08-04T02:23:33;24.60;99.90
19252;DHT22;9760;50.944;5.304;2022-08-04T02:26:01;24.50;99.90
19252;DHT22;9760;50.944;5.304;2022-08-04T02:28:44;24.40;99.90
19252;DHT22;9760;50.944;5.304;2022-08-04T02:31:32;24.30;99.90
19252;DHT22;9760;50.944;5.304;2022-08-04T02:34:06;24.20;99.90
19252;DHT22;9760;50.944;5.304;2022-08-04T02:36:38;24.20;99.90
19252;DHT22;9760;50.944;5.304;2022-08-04T02:39:06;24.20;99.90
19252;DHT22;9760;50.944;5.304;2022-08-04T02:41:33;24.20;99.90
19252;DHT22;9760;50.944;5.304;2022-08-04T02:44:05;24.20;99.90
19252;DHT22;9760;50.944;5.304;2022-08-04T02:46:32;24.30;99.90
19252;DHT22;9760;50.944;5.304;2022-08-04T02:49:02;24.20;99.90
19252;DHT22;9760;50.944;5.304;2022-08-04T02:51:31;24.20;99.90
19252;DHT22;9760;50.944;5.304;2022-08-04T02:53:58;24.20;99.90
19252;DHT22;9760;50.944;5.304;2022-08-04T02:56:27;24.10;99.90
19252;DHT22;9760;50.944;5.304;2022-08-04T02:59:02;24.10;99.90
19252;DHT22;9760;50.944;5.304;2022-08-04T03:01:28;24.00;99.90
19252;DHT22;9760;50.944;5.304;2022-08-04T03:07:49;24.00;99.90
19252;DHT22;9760;50.944;5.304;2022-08-04T03:13:33;23.90;99.90
19252;DHT22;9760;50.944;5.304;2022-08-04T03:22:15;24.00;99.90
19252;DHT22;9760;50.944;5.304;2022-08-04T03:30:05;24.00;99.90
19252;DHT22;9760;50.944;5.304;2022-08-04T03:38:10;24.20;99.90
19252;DHT22;9760;50.944;5.304;2022-08-04T03:52:46;23.90;99.90
19252;DHT22;9760;50.944;5.304;2022-08-04T03:58:53;23.60;99.90
19252;DHT22;9760;50.944;5.304;2022-08-04T04:01:42;23.60;99.90
19252;DHT22;9760;50.944;5.304;2022-08-04T04:12:47;23.60;99.90
19252;DHT22;9760;50.944;5.304;2022-08-04T04:18:29;23.50;99.90
19252;DHT22;9760;50.944;5.304;2022-08-04T04:21:32;23.40;99.90
19252;DHT22;9760;50.944;5.304;2022-08-04T04:40:26;23.10;99.90
19252;DHT22;9760;50.944;5.304;2022-08-04T04:46:12;23.10;99.90
19252;DHT22;9760;50.944;5.304;2022-08-04T04:51:54;23.00;99.90
19252;DHT22;9760;50.944;5.304;2022-08-04T04:57:10;23.10;99.90
19252;DHT22;9760;50.944;5.304;2022-08-04T05:02:57;23.10;99.90
19252;DHT22;9760;50.944;5.304;2022-08-04T05:11:28;23.00;99.90
19252;DHT22;9760;50.944;5.304;2022-08-04T05:14:07;23.10;99.90
19252;DHT22;9760;50.944;5.304;2022-08-04T05:16:38;23.10;99.90
19252;DHT22;9760;50.944;5.304;2022-08-04T05:19:24;23.20;99.90
19252;DHT22;9760;50.944;5.304;2022-08-04T05:22:07;23.20;99.90
19252;DHT22;9760;50.944;5.304;2022-08-04T05:24:39;23.40;99.90
19252;DHT22;9760;50.944;5.304;2022-08-04T05:27:14;23.50;99.90
19252;DHT22;9760;50.944;5.304;2022-08-04T05:29:53;23.60;99.90
19252;DHT22;9760;50.944;5.304;2022-08-04T05:32:25;23.70;99.90
19252;DHT22;9760;50.944;5.304;2022-08-04T05:34:58;23.70;99.90
19252;DHT22;9760;50.944;5.304;2022-08-04T05:37:26;23.90;99.90
19252;DHT22;9760;50.944;5.304;2022-08-04T05:39:58;24.00;99.90
19252;DHT22;9760;50.944;5.304;2022-08-04T05:42:26;24.10;99.90
19252;DHT22;9760;50.944;5.304;2022-08-04T05:44:54;24.10;99.90
19252;DHT22;9760;50.944;5.304;2022-08-04T05:47:20;24.10;99.90
19252;DHT22;9760;50.944;5.304;2022-08-04T05:49:46;24.20;99.90
19252;DHT22;9760;50.944;5.304;2022-08-04T05:52:13;24.10;99.90
19252;DHT22;9760;50.944;5.304;2022-08-04T05:54:40;24.00;99.90
19252;DHT22;9760;50.944;5.304;2022-08-04T05:57:07;24.10;99.90
19252;DHT22;9760;50.944;5.304;2022-08-04T05:59:37;24.00;99.90
19252;DHT22;9760;50.944;5.304;2022-08-04T06:02:03;23.90;99.90
19252;DHT22;9760;50.944;5.304;2022-08-04T06:04:36;24.00;99.90
19252;DHT22;9760;50.944;5.304;2022-08-04T06:07:03;24.00;99.90
19252;DHT22;9760;50.944;5.304;2022-08-04T06:09:29;24.00;99.90
19252;DHT22;9760;50.944;5.304;2022-08-04T06:12:02;24.00;99.90
19252;DHT22;9760;50.944;5.304;2022-08-04T06:14:32;24.10;99.90
19252;DHT22;9760;50.944;5.304;2022-08-04T06:17:01;24.20;99.90
19252;DHT22;9760;50.944;5.304;2022-08-04T06:19:30;24.30;99.90
19252;DHT22;9760;50.944;5.304;2022-08-04T06:22:02;24.20;99.90
19252;DHT22;9760;50.944;5.304;2022-08-04T06:24:30;24.40;99.90
19252;DHT22;9760;50.944;5.304;2022-08-04T06:26:57;24.40;99.90
19252;DHT22;9760;50.944;5.304;2022-08-04T06:29:24;24.30;99.90
19252;DHT22;9760;50.944;5.304;2022-08-04T06:32:11;24.30;99.90
19252;DHT22;9760;50.944;5.304;2022-08-04T06:34:59;24.30;99.90
19252;DHT22;9760;50.944;5.304;2022-08-04T06:37:26;24.30;99.90
19252;DHT22;9760;50.944;5.304;2022-08-04T06:39:53;24.30;99.90
19252;DHT22;9760;50.944;5.304;2022-08-04T06:42:22;24.60;99.90
19252;DHT22;9760;50.944;5.304;2022-08-04T06:44:51;24.50;99.90
19252;DHT22;9760;50.944;5.304;2022-08-04T06:47:17;24.60;99.90
19252;DHT22;9760;50.944;5.304;2022-08-04T06:49:47;24.60;99.90
19252;DHT22;9760;50.944;5.304;2022-08-04T06:52:16;24.70;99.90
19252;DHT22;9760;50.944;5.304;2022-08-04T06:54:44;24.70;99.90
19252;DHT22;9760;50.944;5.304;2022-08-04T06:57:13;24.70;99.90
19252;DHT22;9760;50.944;5.304;2022-08-04T06:59:43;24.80;99.90
19252;DHT22;9760;50.944;5.304;2022-08-04T07:02:19;24.80;99.90
19252;DHT22;9760;50.944;5.304;2022-08-04T07:04:48;24.80;99.90
19252;DHT22;9760;50.944;5.304;2022-08-04T07:07:14;24.70;99.90
19252;DHT22;9760;50.944;5.304;2022-08-04T07:09:40;24.80;99.90
19252;DHT22;9760;50.944;5.304;2022-08-04T07:12:07;24.60;99.90
19252;DHT22;9760;50.944;5.304;2022-08-04T07:14:34;24.60;99.90
19252;DHT22;9760;50.944;5.304;2022-08-04T07:17:03;24.50;99.90
19252;DHT22;9760;50.944;5.304;2022-08-04T07:19:30;24.50;99.90
19252;DHT22;9760;50.944;5.304;2022-08-04T07:22:00;24.60;99.90
19252;DHT22;9760;50.944;5.304;2022-08-04T07:24:34;24.40;99.90
19252;DHT22;9760;50.944;5.304;2022-08-04T07:27:00;24.50;99.90
19252;DHT22;9760;50.944;5.304;2022-08-04T07:29:26;24.40;99.90
19252;DHT22;9760;50.944;5.304;2022-08-04T07:31:54;24.40;99.90
19252;DHT22;9760;50.944;5.304;2022-08-04T07:34:20;24.50;99.90
19252;DHT22;9760;50.944;5.304;2022-08-04T07:36:51;24.50;99.90
19252;DHT22;9760;50.944;5.304;2022-08-04T07:39:18;24.50;99.90
19252;DHT22;9760;50.944;5.304;2022-08-04T07:41:44;24.50;99.90
19252;DHT22;9760;50.944;5.304;2022-08-04T07:44:13;24.70;99.90
19252;DHT22;9760;50.944;5.304;2022-08-04T07:46:39;24.80;99.90
19252;DHT22;9760;50.944;5.304;2022-08-04T07:49:05;25.00;99.90
19252;DHT22;9760;50.944;5.304;2022-08-04T07:51:32;25.10;99.90
19252;DHT22;9760;50.944;5.304;2022-08-04T07:54:00;25.30;99.90
19252;DHT22;9760;50.944;5.304;2022-08-04T07:56:28;25.40;99.90
19252;DHT22;9760;50.944;5.304;2022-08-04T07:58:54;25.30;99.90
19252;DHT22;9760;50.944;5.304;2022-08-04T08:01:21;25.50;99.90
19252;DHT22;9760;50.944;5.304;2022-08-04T08:03:47;25.40;99.90
19252;DHT22;9760;50.944;5.304;2022-08-04T08:06:14;25.60;99.90
19252;DHT22;9760;50.944;5.304;2022-08-04T08:08:39;25.70;99.90
19252;DHT22;9760;50.944;5.304;2022-08-04T08:11:08;25.80;99.90
19252;DHT22;9760;50.944;5.304;2022-08-04T08:13:35;26.00;99.90
19252;DHT22;9760;50.944;5.304;2022-08-04T08:16:02;26.00;99.90
19252;DHT22;9760;50.944;5.304;2022-08-04T08:18:29;25.90;99.90
19252;DHT22;9760;50.944;5.304;2022-08-04T08:20:55;26.00;99.90
19252;DHT22;9760;50.944;5.304;2022-08-04T08:23:21;26.00;99.90
19252;DHT22;9760;50.944;5.304;2022-08-04T08:25:47;26.00;99.90
19252;DHT22;9760;50.944;5.304;2022-08-04T08:28:13;26.10;99.90
19252;DHT22;9760;50.944;5.304;2022-08-04T08:30:40;26.20;99.90
19252;DHT22;9760;50.944;5.304;2022-08-04T08:33:07;26.30;99.90
19252;DHT22;9760;50.944;5.304;2022-08-04T08:35:51;26.30;99.90
19252;DHT22;9760;50.944;5.304;2022-08-04T08:38:48;26.40;99.90
19252;DHT22;9760;50.944;5.304;2022-08-04T09:00:27;27.60;99.90
19252;DHT22;9760;50.944;5.304;2022-08-04T09:03:34;27.60;99.90
19252;DHT22;9760;50.944;5.304;2022-08-04T09:06:51;27.50;99.90
19252;DHT22;9760;50.944;5.304;2022-08-04T09:11:57;27.20;99.90
19252;DHT22;9760;50.944;5.304;2022-08-04T09:15:11;27.10;99.90
19252;DHT22;9760;50.944;5.304;2022-08-04T09:17:40;27.10;99.90
19252;DHT22;9760;50.944;5.304;2022-08-04T09:20:20;27.00;99.90
19252;DHT22;9760;50.944;5.304;2022-08-04T09:22:57;27.00;99.90
19252;DHT22;9760;50.944;5.304;2022-08-04T09:25:29;26.90;99.90
19252;DHT22;9760;50.944;5.304;2022-08-04T09:28:05;26.70;99.90
19252;DHT22;9760;50.944;5.304;2022-08-04T09:30:39;26.80;99.90
19252;DHT22;9760;50.944;5.304;2022-08-04T09:38:50;25.90;99.90
19252;DHT22;9760;50.944;5.304;2022-08-04T09:41:37;25.80;99.90
19252;DHT22;9760;50.944;5.304;2022-08-04T09:46:51;25.70;99.90
19252;DHT22;9760;50.944;5.304;2022-08-04T09:49:35;25.70;99.90
19252;DHT22;9760;50.944;5.304;2022-08-04T09:52:08;25.70;99.90
19252;DHT22;9760;50.944;5.304;2022-08-04T09:55:04;25.70;99.90
19252;DHT22;9760;50.944;5.304;2022-08-04T10:00:10;26.00;99.90
19252;DHT22;9760;50.944;5.304;2022-08-04T10:02:41;26.00;99.90
19252;DHT22;9760;50.944;5.304;2022-08-04T10:05:13;26.00;99.90
19252;DHT22;9760;50.944;5.304;2022-08-04T10:18:44;25.60;99.90
19252;DHT22;9760;50.944;5.304;2022-08-04T10:22:00;25.60;99.90
19252;DHT22;9760;50.944;5.304;2022-08-04T10:27:15;25.90;99.90
19252;DHT22;9760;50.944;5.304;2022-08-04T10:29:47;25.80;99.90
19252;DHT22;9760;50.944;5.304;2022-08-04T10:35:16;26.10;99.90
19252;DHT22;9760;50.944;5.304;2022-08-04T10:38:10;26.20;99.90
19252;DHT22;9760;50.944;5.304;2022-08-04T10:40:50;26.40;99.90
19252;DHT22;9760;50.944;5.304;2022-08-04T10:43:55;26.70;99.90
19252;DHT22;9760;50.944;5.304;2022-08-04T10:46:46;26.90;99.90
19252;DHT22;9760;50.944;5.304;2022-08-04T10:49:21;27.10;99.90
19252;DHT22;9760;50.944;5.304;2022-08-04T10:51:54;27.20;99.90
19252;DHT22;9760;50.944;5.304;2022-08-04T10:57:22;27.90;99.90
19252;DHT22;9760;50.944;5.304;2022-08-04T10:59:57;28.10;99.90
19252;DHT22;9760;50.944;5.304;2022-08-04T11:08:09;28.10;99.90
19252;DHT22;9760;50.944;5.304;2022-08-04T11:10:47;28.20;99.90
19252;DHT22;9760;50.944;5.304;2022-08-04T11:13:16;28.40;99.90
19252;DHT22;9760;50.944;5.304;2022-08-04T11:15:53;28.30;99.90
19252;DHT22;9760;50.944;5.304;2022-08-04T11:18:29;28.30;99.90
19252;DHT22;9760;50.944;5.304;2022-08-04T11:21:03;28.20;99.90
19252;DHT22;9760;50.944;5.304;2022-08-04T11:23:36;28.30;99.90
19252;DHT22;9760;50.944;5.304;2022-08-04T11:26:11;28.40;99.90
19252;DHT22;9760;50.944;5.304;2022-08-04T11:31:59;28.90;99.90
19252;DHT22;9760;50.944;5.304;2022-08-04T11:34:27;29.10;99.90
19252;DHT22;9760;50.944;5.304;2022-08-04T11:37:26;29.30;99.90
19252;DHT22;9760;50.944;5.304;2022-08-04T11:40:12;29.50;99.90
19252;DHT22;9760;50.944;5.304;2022-08-04T11:42:43;29.70;99.90
19252;DHT22;9760;50.944;5.304;2022-08-04T11:45:20;29.80;99.90
19252;DHT22;9760;50.944;5.304;2022-08-04T11:47:50;29.70;99.90
19252;DHT22;9760;50.944;5.304;2022-08-04T11:53:03;29.50;99.90
19252;DHT22;9760;50.944;5.304;2022-08-04T11:55:31;29.40;99.90
19252;DHT22;9760;50.944;5.304;2022-08-04T11:57:58;29.60;99.90
19252;DHT22;9760;50.944;5.304;2022-08-04T12:00:26;30.00;99.90
19252;DHT22;9760;50.944;5.304;2022-08-04T12:03:18;30.10;99.90
19252;DHT22;9760;50.944;5.304;2022-08-04T12:05:59;29.90;99.90
19252;DHT22;9760;50.944;5.304;2022-08-04T12:17:01;30.40;99.90
19252;DHT22;9760;50.944;5.304;2022-08-04T12:22:04;30.50;99.90
19252;DHT22;9760;50.944;5.304;2022-08-04T12:24:46;30.30;99.90
19252;DHT22;9760;50.944;5.304;2022-08-04T12:27:20;30.40;99.90
19252;DHT22;9760;50.944;5.304;2022-08-04T12:29:50;30.30;99.90
19252;DHT22;9760;50.944;5.304;2022-08-04T12:34:53;30.00;99.90
19252;DHT22;9760;50.944;5.304;2022-08-04T12:40:17;30.00;99.90
19252;DHT22;9760;50.944;5.304;2022-08-04T12:42:54;29.90;99.90
19252;DHT22;9760;50.944;5.304;2022-08-04T12:45:24;29.50;99.90
19252;DHT22;9760;50.944;5.304;2022-08-04T12:47:52;29.50;99.90
19252;DHT22;9760;50.944;5.304;2022-08-04T12:50:19;29.60;99.90
19252;DHT22;9760;50.944;5.304;2022-08-04T12:52:53;29.70;99.90
19252;DHT22;9760;50.944;5.304;2022-08-04T12:55:24;29.50;99.90
19252;DHT22;9760;50.944;5.304;2022-08-04T12:57:51;29.20;99.90
19252;DHT22;9760;50.944;5.304;2022-08-04T13:00:28;29.10;99.90
19252;DHT22;9760;50.944;5.304;2022-08-04T13:03:05;29.20;99.90
19252;DHT22;9760;50.944;5.304;2022-08-04T13:05:34;28.90;99.90
19252;DHT22;9760;50.944;5.304;2022-08-04T13:08:02;28.90;99.90
19252;DHT22;9760;50.944;5.304;2022-08-04T13:10:30;28.90;99.90
19252;DHT22;9760;50.944;5.304;2022-08-04T13:13:01;28.70;99.90
19252;DHT22;9760;50.944;5.304;2022-08-04T13:15:28;28.70;99.90
19252;DHT22;9760;50.944;5.304;2022-08-04T13:20:31;28.80;99.90
19252;DHT22;9760;50.944;5.304;2022-08-04T13:23:09;28.60;99.90
19252;DHT22;9760;50.944;5.304;2022-08-04T13:25:41;28.80;99.90
19252;DHT22;9760;50.944;5.304;2022-08-04T13:28:18;29.00;99.90
19252;DHT22;9760;50.944;5.304;2022-08-04T13:30:45;28.90;99.90
19252;DHT22;9760;50.944;5.304;2022-08-04T13:33:12;28.90;99.90
19252;DHT22;9760;50.944;5.304;2022-08-04T13:35:47;28.70;99.90
19252;DHT22;9760;50.944;5.304;2022-08-04T13:38:16;28.60;99.90
19252;DHT22;9760;50.944;5.304;2022-08-04T13:40:43;28.60;99.90
19252;DHT22;9760;50.944;5.304;2022-08-04T13:43:25;28.60;99.90
19252;DHT22;9760;50.944;5.304;2022-08-04T13:46:04;28.70;99.90
19252;DHT22;9760;50.944;5.304;2022-08-04T13:48:39;28.60;99.90
19252;DHT22;9760;50.944;5.304;2022-08-04T13:51:09;28.60;99.90
19252;DHT22;9760;50.944;5.304;2022-08-04T13:53:37;28.80;99.90
19252;DHT22;9760;50.944;5.304;2022-08-04T13:56:05;28.80;99.90
19252;DHT22;9760;50.944;5.304;2022-08-04T13:58:33;29.00;99.90
19252;DHT22;9760;50.944;5.304;2022-08-04T14:01:06;29.20;99.90
19252;DHT22;9760;50.944;5.304;2022-08-04T14:03:38;29.30;99.90
19252;DHT22;9760;50.944;5.304;2022-08-04T14:06:14;28.90;99.90
19252;DHT22;9760;50.944;5.304;2022-08-04T14:09:09;29.10;99.90
19252;DHT22;9760;50.944;5.304;2022-08-04T14:11:44;29.00;99.90
19252;DHT22;9760;50.944;5.304;2022-08-04T14:16:59;29.20;99.90
19252;DHT22;9760;50.944;5.304;2022-08-04T14:19:27;29.10;99.90
19252;DHT22;9760;50.944;5.304;2022-08-04T14:21:53;29.50;99.90
19252;DHT22;9760;50.944;5.304;2022-08-04T14:24:26;29.50;99.90
19252;DHT22;9760;50.944;5.304;2022-08-04T14:26:58;29.20;99.90
19252;DHT22;9760;50.944;5.304;2022-08-04T14:29:24;29.30;99.90
19252;DHT22;9760;50.944;5.304;2022-08-04T14:31:49;29.20;99.90
19252;DHT22;9760;50.944;5.304;2022-08-04T14:34:26;29.40;99.90
19252;DHT22;9760;50.944;5.304;2022-08-04T14:36:52;29.60;99.90
19252;DHT22;9760;50.944;5.304;2022-08-04T14:39:45;29.50;99.90
19252;DHT22;9760;50.944;5.304;2022-08-04T14:42:13;29.40;99.90
19252;DHT22;9760;50.944;5.304;2022-08-04T14:47:27;29.10;99.90
19252;DHT22;9760;50.944;5.304;2022-08-04T14:50:02;29.20;99.90
19252;DHT22;9760;50.944;5.304;2022-08-04T14:52:28;29.30;99.90
19252;DHT22;9760;50.944;5.304;2022-08-04T14:54:54;29.30;99.90
19252;DHT22;9760;50.944;5.304;2022-08-04T14:57:20;29.60;99.90
19252;DHT22;9760;50.944;5.304;2022-08-04T14:59:47;29.60;99.90
19252;DHT22;9760;50.944;5.304;2022-08-04T15:02:14;29.50;99.90
19252;DHT22;9760;50.944;5.304;2022-08-04T15:04:42;29.70;99.90
19252;DHT22;9760;50.944;5.304;2022-08-04T15:07:09;29.50;99.90
19252;DHT22;9760;50.944;5.304;2022-08-04T15:09:36;29.60;99.90
19252;DHT22;9760;50.944;5.304;2022-08-04T15:12:03;29.50;99.90
19252;DHT22;9760;50.944;5.304;2022-08-04T15:14:29;29.40;99.90
19252;DHT22;9760;50.944;5.304;2022-08-04T15:16:56;29.50;99.90
19252;DHT22;9760;50.944;5.304;2022-08-04T15:19:22;29.50;99.90
19252;DHT22;9760;50.944;5.304;2022-08-04T15:21:49;29.60;99.90
19252;DHT22;9760;50.944;5.304;2022-08-04T15:24:15;29.30;99.90
19252;DHT22;9760;50.944;5.304;2022-08-04T15:26:45;29.30;99.90
19252;DHT22;9760;50.944;5.304;2022-08-04T15:29:22;29.40;99.90
19252;DHT22;9760;50.944;5.304;2022-08-04T15:31:51;29.40;99.90
19252;DHT22;9760;50.944;5.304;2022-08-04T15:34:19;29.70;99.90
19252;DHT22;9760;50.944;5.304;2022-08-04T15:37:03;30.10;99.90
19252;DHT22;9760;50.944;5.304;2022-08-04T15:39:42;31.40;99.90
19252;DHT22;9760;50.944;5.304;2022-08-04T15:42:37;31.30;99.90
19252;DHT22;9760;50.944;5.304;2022-08-04T15:45:22;31.80;99.90
19252;DHT22;9760;50.944;5.304;2022-08-04T15:50:30;31.80;99.90
19252;DHT22;9760;50.944;5.304;2022-08-04T15:53:03;32.00;99.90
19252;DHT22;9760;50.944;5.304;2022-08-04T15:55:40;33.40;99.90
19252;DHT22;9760;50.944;5.304;2022-08-04T15:58:13;33.90;99.90
19252;DHT22;9760;50.944;5.304;2022-08-04T16:19:09;35.60;99.90
19252;DHT22;9760;50.944;5.304;2022-08-04T16:22:04;35.90;99.90
19252;DHT22;9760;50.944;5.304;2022-08-04T16:24:37;36.80;99.90
19252;DHT22;9760;50.944;5.304;2022-08-04T16:27:11;36.60;99.90
19252;DHT22;9760;50.944;5.304;2022-08-04T16:29:39;37.10;99.90
19252;DHT22;9760;50.944;5.304;2022-08-04T16:37:01;35.70;99.90
19252;DHT22;9760;50.944;5.304;2022-08-04T16:39:28;36.20;99.90
19252;DHT22;9760;50.944;5.304;2022-08-04T16:41:54;35.60;99.90
19252;DHT22;9760;50.944;5.304;2022-08-04T16:44:35;35.80;99.90
19252;DHT22;9760;50.944;5.304;2022-08-04T16:47:04;34.80;99.90
19252;DHT22;9760;50.944;5.304;2022-08-04T16:49:31;33.80;99.90
19252;DHT22;9760;50.944;5.304;2022-08-04T16:52:05;33.10;99.90
19252;DHT22;9760;50.944;5.304;2022-08-04T16:54:31;32.30;99.90
19252;DHT22;9760;50.944;5.304;2022-08-04T16:56:58;31.70;99.90
19252;DHT22;9760;50.944;5.304;2022-08-04T16:59:25;31.30;99.90
19252;DHT22;9760;50.944;5.304;2022-08-04T17:01:52;30.90;99.90
19252;DHT22;9760;50.944;5.304;2022-08-04T17:04:32;30.90;99.90
19252;DHT22;9760;50.944;5.304;2022-08-04T17:07:03;30.50;99.90
19252;DHT22;9760;50.944;5.304;2022-08-04T17:09:29;30.60;99.90
19252;DHT22;9760;50.944;5.304;2022-08-04T17:11:56;30.70;99.90
19252;DHT22;9760;50.944;5.304;2022-08-04T17:14:26;31.10;99.90
19252;DHT22;9760;50.944;5.304;2022-08-04T17:16:56;31.20;99.90
19252;DHT22;9760;50.944;5.304;2022-08-04T17:19:22;31.30;99.90
19252;DHT22;9760;50.944;5.304;2022-08-04T17:21:49;31.10;99.90
19252;DHT22;9760;50.944;5.304;2022-08-04T17:24:15;30.70;99.90
19252;DHT22;9760;50.944;5.304;2022-08-04T17:26:42;30.20;99.90
19252;DHT22;9760;50.944;5.304;2022-08-04T17:29:08;29.80;99.90
19252;DHT22;9760;50.944;5.304;2022-08-04T17:31:36;29.80;99.90
19252;DHT22;9760;50.944;5.304;2022-08-04T17:34:08;29.70;99.90
19252;DHT22;9760;50.944;5.304;2022-08-04T17:36:36;29.90;99.90
19252;DHT22;9760;50.944;5.304;2022-08-04T17:39:14;29.70;99.90
19252;DHT22;9760;50.944;5.304;2022-08-04T17:41:41;29.70;99.90
19252;DHT22;9760;50.944;5.304;2022-08-04T17:44:07;29.70;99.90
19252;DHT22;9760;50.944;5.304;2022-08-04T17:49:03;29.50;99.90
19252;DHT22;9760;50.944;5.304;2022-08-04T17:54:31;29.20;99.90
19252;DHT22;9760;50.944;5.304;2022-08-04T17:57:15;29.00;99.90
19252;DHT22;9760;50.944;5.304;2022-08-04T17:59:41;28.90;99.90
19252;DHT22;9760;50.944;5.304;2022-08-04T18:02:07;28.80;99.90
19252;DHT22;9760;50.944;5.304;2022-08-04T18:04:34;28.70;99.90
19252;DHT22;9760;50.944;5.304;2022-08-04T18:09:34;28.60;99.90
19252;DHT22;9760;50.944;5.304;2022-08-04T18:12:05;28.50;99.90
19252;DHT22;9760;50.944;5.304;2022-08-04T18:14:43;28.50;99.90
19252;DHT22;9760;50.944;5.304;2022-08-04T18:17:10;28.40;99.90
19252;DHT22;9760;50.944;5.304;2022-08-04T18:19:37;28.30;99.90
19252;DHT22;9760;50.944;5.304;2022-08-04T18:22:04;28.30;99.90
19252;DHT22;9760;50.944;5.304;2022-08-04T18:24:32;28.20;99.90
19252;DHT22;9760;50.944;5.304;2022-08-04T18:26:58;28.10;99.90
19252;DHT22;9760;50.944;5.304;2022-08-04T18:29:24;28.00;99.90
19252;DHT22;9760;50.944;5.304;2022-08-04T18:31:49;27.90;99.90
19252;DHT22;9760;50.944;5.304;2022-08-04T18:34:15;27.80;99.90
19252;DHT22;9760;50.944;5.304;2022-08-04T18:36:41;27.60;99.90
19252;DHT22;9760;50.944;5.304;2022-08-04T18:39:09;27.50;99.90
19252;DHT22;9760;50.944;5.304;2022-08-04T18:41:35;27.30;99.90
19252;DHT22;9760;50.944;5.304;2022-08-04T18:44:00;27.20;99.90
19252;DHT22;9760;50.944;5.304;2022-08-04T18:46:26;27.10;99.90
19252;DHT22;9760;50.944;5.304;2022-08-04T18:48:52;27.10;99.90
19252;DHT22;9760;50.944;5.304;2022-08-04T18:51:18;27.10;99.90
19252;DHT22;9760;50.944;5.304;2022-08-04T18:53:44;27.10;99.90
19252;DHT22;9760;50.944;5.304;2022-08-04T18:56:10;27.00;99.90
19252;DHT22;9760;50.944;5.304;2022-08-04T18:58:36;26.90;99.90
19252;DHT22;9760;50.944;5.304;2022-08-04T19:01:02;26.80;99.90
19252;DHT22;9760;50.944;5.304;2022-08-04T19:03:28;26.70;99.90
19252;DHT22;9760;50.944;5.304;2022-08-04T19:05:54;26.70;99.90
19252;DHT22;9760;50.944;5.304;2022-08-04T19:08:19;26.70;99.90
19252;DHT22;9760;50.944;5.304;2022-08-04T19:10:45;26.70;99.90
19252;DHT22;9760;50.944;5.304;2022-08-04T19:13:11;26.60;99.90
19252;DHT22;9760;50.944;5.304;2022-08-04T19:15:36;26.50;99.90
19252;DHT22;9760;50.944;5.304;2022-08-04T19:18:02;26.50;99.90
19252;DHT22;9760;50.944;5.304;2022-08-04T19:20:28;26.50;99.90
19252;DHT22;9760;50.944;5.304;2022-08-04T19:22:54;26.40;99.90
19252;DHT22;9760;50.944;5.304;2022-08-04T19:25:20;26.20;99.90
19252;DHT22;9760;50.944;5.304;2022-08-04T19:27:46;26.10;99.90
19252;DHT22;9760;50.944;5.304;2022-08-04T19:30:12;25.90;99.90
19252;DHT22;9760;50.944;5.304;2022-08-04T19:32:37;25.90;99.90
19252;DHT22;9760;50.944;5.304;2022-08-04T19:35:03;25.70;99.90
19252;DHT22;9760;50.944;5.304;2022-08-04T19:37:29;25.70;99.90
19252;DHT22;9760;50.944;5.304;2022-08-04T19:39:56;25.70;99.90
19252;DHT22;9760;50.944;5.304;2022-08-04T19:42:22;25.70;99.90
19252;DHT22;9760;50.944;5.304;2022-08-04T19:44:47;25.60;99.90
19252;DHT22;9760;50.944;5.304;2022-08-04T19:47:13;25.50;99.90
19252;DHT22;9760;50.944;5.304;2022-08-04T19:49:38;25.30;99.90
19252;DHT22;9760;50.944;5.304;2022-08-04T19:52:04;25.20;99.90
19252;DHT22;9760;50.944;5.304;2022-08-04T19:54:31;25.20;99.90
19252;DHT22;9760;50.944;5.304;2022-08-04T19:56:57;25.20;99.90
19252;DHT22;9760;50.944;5.304;2022-08-04T19:59:23;25.10;99.90
19252;DHT22;9760;50.944;5.304;2022-08-04T20:01:48;25.00;99.90
19252;DHT22;9760;50.944;5.304;2022-08-04T20:04:14;24.70;99.90
19252;DHT22;9760;50.944;5.304;2022-08-04T20:06:40;24.40;99.90
19252;DHT22;9760;50.944;5.304;2022-08-04T20:09:06;23.80;99.90
19252;DHT22;9760;50.944;5.304;2022-08-04T20:11:32;23.30;99.90
19252;DHT22;9760;50.944;5.304;2022-08-04T20:13:58;22.80;99.90
19252;DHT22;9760;50.944;5.304;2022-08-04T20:16:23;22.50;99.90
19252;DHT22;9760;50.944;5.304;2022-08-04T20:18:49;22.30;99.90
19252;DHT22;9760;50.944;5.304;2022-08-04T20:21:15;22.10;99.90
19252;DHT22;9760;50.944;5.304;2022-08-04T20:23:40;22.00;99.90
19252;DHT22;9760;50.944;5.304;2022-08-04T20:26:06;21.80;99.90
19252;DHT22;9760;50.944;5.304;2022-08-04T20:28:33;21.70;99.90
19252;DHT22;9760;50.944;5.304;2022-08-04T20:30:59;21.70;99.90